KHRO/HRO METAR and TAF weather

Enter ICAO airport designator
Station Type Date Time Source
KHRO METAR 2021/09/20 04:53 UTC NOAA

KHRO 200453Z AUTO 13006KT 10SM FEW023 21/19 A2996 RMK AO2 SLP132 T02060189


Station Type Date Time Source
KHRO Decoded METAR 2021/09/20 04:53 UTC NOAA

HARRISON BOONE COUNTY AIRPORT , AR, United States (KHRO) 36-16N 093-09W 417M
Sep 20, 2021 - 12:53 AM EDT / 2021.09.20 0453 UTC
Wind: from the SE (130 degrees) at 7 MPH (6 KT):0
Visibility: 10 mile(s):0
Sky conditions: mostly clear
Temperature: 69.1 F (20.6 C)
Dew Point: 66.0 F (18.9 C)
Relative Humidity: 89%
Pressure (altimeter): 29.96 in. Hg (1014 hPa)
ob: KHRO 200453Z AUTO 13006KT 10SM FEW023 21/19 A2996 RMK AO2 SLP132 T02060189
cycle: 5

Station Type Date Time Source
KHRO TAF 2021/09/19 20:45 UTC NOAA

TAF
AMD KHRO 191942Z 1920/2018 12007KT P6SM VCTS SCT040CB
FM200100 12007KT P6SM SCT020 SCT060
TEMPO 2009/2013 5SM BR BKN020
FM201400 17008KT P6SM SCT060 SCT120

Example: see airport list